Latest Coastal Weather Observations for Ngayawili (Elcho Island)

IDD60701

Issued at 12:21 pm CST Wednesday 4 March 2015 (issued every 10 minutes, with the page automatically refreshed every 10 minutes)

About coastal observations | Map of coastal stations | Coastal observations for NT | Marine services | Other Formats
Station Details ID: 014517 Name: NGAYAWILI Lat: -12.00 Lon: 135.57 Height: 8.1 m
Data from the previous 72 hours. | See also: Recent months at Ngayawili (Elcho Island)
Date/Time
CST
Temp

°C
Wind Pressure Rain
since 9am
mm
Weather Cloud Vis
km
Sea
Height
m
Swell
Dir
 
Speed
knots
Gust
knots
hPa Trend Height
m
Period
s
Dir
04/12:00pm 29.4 WSW 7 8 - - 0.0 - - - - - - -
04/11:30am 29.3 WSW 8 10 - - 0.0 - - - - - - -
04/11:00am 29.4 WSW 9 10 - - 0.0 - - - - - - -
04/10:30am 29.3 WSW 7 9 - - 0.0 - - - - - - -
04/10:00am 29.2 WSW 5 7 - - 0.0 - - - - - - -
04/09:30am 30.0 WSW 4 7 - - 0.0 - - - - - - -
04/09:00am 29.1 WSW 4 6 - - - - - - - - - -
04/08:30am 28.7 WSW 2 5 - - - - - - - - - -
04/08:00am 27.5 WSW 4 6 - - - - - - - - - -
04/07:30am 26.8 WSW 3 4 - - - - - - - - - -
04/07:00am 25.8 WSW 4 4 - - - - - - - - - -
04/06:30am 25.4 WSW 4 5 - - - - - - - - - -
04/06:00am 25.3 SW 5 5 - - - - - - - - - -
04/05:30am 25.7 SW 5 5 - - - - - - - - - -
04/05:00am 25.1 SW 5 5 - - - - - - - - - -
04/04:30am 25.2 SW 4 4 - - - - - - - - - -
04/04:00am 25.4 SW 3 3 - - - - - - - - - -
04/03:30am 25.8 SW 4 5 - - - - - - - - - -
04/03:00am 26.0 CALM 0 0 - - 0.0 - - - - - - -
04/02:30am 26.5 SW 1 3 - - - - - - - - - -
04/02:00am 26.7 SW 4 4 - - - - - - - - - -
04/01:30am 27.8 SW 5 6 - - - - - - - - - -
04/01:00am 27.9 SW 6 7 - - - - - - - - - -
04/12:30am 28.2 SW 7 8 - - - - - - - - - -
04/12:00am 28.1 SW 7 8 - - - - - - - - - -
 
Date/Time
CST
Temp

°C
Wind Pressure Rain
since 9am
mm
Weather Cloud Vis
km
Sea
Height
m
Swell
Dir
 
Speed
knots
Gust
knots
hPa Trend Height
m
Period
s
Dir
03/11:30pm 28.3 SW 8 10 - - - - - - - - - -
03/11:00pm 28.4 WSW 7 9 - - - - - - - - - -
03/10:30pm 28.3 WSW 7 9 - - - - - - - - - -
03/10:00pm 28.3 WSW 8 9 - - - - - - - - - -
03/09:30pm 28.5 WSW 9 10 - - - - - - - - - -
03/09:00pm 28.5 WSW 10 11 - - 0.0 - - - - - - -
03/08:30pm 28.7 WSW 10 11 - - - - - - - - - -
03/08:00pm 28.7 WSW 9 11 - - - - - - - - - -
03/07:30pm 28.8 WSW 11 12 - - - - - - - - - -
03/07:00pm 28.8 WSW 10 11 - - - - - - - - - -
03/06:30pm 29.1 SW 9 11 - - - - - - - - - -
03/06:00pm 29.4 SW 8 11 - - - - - - - - - -
03/05:30pm 29.8 SW 8 10 - - - - - - - - - -
03/05:00pm 30.2 SW 11 12 - - - - - - - - - -
03/04:30pm 30.6 SW 11 14 - - - - - - - - - -
03/04:00pm 31.2 SW 11 14 - - - - - - - - - -
03/03:30pm 30.9 SW 11 13 - - - - - - - - - -
03/03:00pm 31.2 SW 13 16 - - - - - - - - - -
03/02:30pm 31.5 SW 12 14 - - - - - - - - - -
03/02:00pm 31.5 SW 13 16 - - - - - - - - - -
03/01:30pm 31.4 WSW 14 17 - - - - - - - - - -
03/01:00pm 31.0 SW 14 16 - - - - - - - - - -
03/12:30pm 31.3 SW 13 17 - - - - - - - - - -
03/06:00am 25.9 WSW 4 6 - - - - - - - - - -
03/05:30am 26.0 WSW 5 5 - - - - - - - - - -
03/05:00am 26.5 WSW 4 6 - - - - - - - - - -
03/04:30am 27.3 WSW 7 8 - - - - - - - - - -
03/04:00am 26.8 WSW 5 8 - - - - - - - - - -
03/03:30am 26.1 WSW 3 5 - - - - - - - - - -
03/03:00am 26.3 WSW 4 5 - - 0.0 - - - - - - -
03/02:30am 26.6 WSW 4 6 - - - - - - - - - -
03/02:00am 26.6 WSW 4 4 - - - - - - - - - -
03/01:30am 26.7 WSW 4 5 - - - - - - - - - -
03/01:00am 26.8 WSW 4 5 - - - - - - - - - -
03/12:30am 27.2 WSW 6 7 - - - - - - - - - -
03/12:00am 27.0 WSW 13 15 - - - - - - - - - -
 
Date/Time
CST
Temp

°C
Wind Pressure Rain
since 9am
mm
Weather Cloud Vis
km
Sea
Height
m
Swell
Dir
 
Speed
knots
Gust
knots
hPa Trend Height
m
Period
s
Dir
02/11:30pm 27.7 WSW 10 11 - - - - - - - - - -
02/11:00pm 27.7 WSW 7 8 - - - - - - - - - -
02/10:30pm 28.0 WSW 9 11 - - - - - - - - - -
02/10:00pm 28.1 WSW 11 13 - - - - - - - - - -
02/09:30pm 27.9 WSW 11 12 - - - - - - - - - -
02/09:00pm 27.9 WSW 11 13 - - 0.0 - - - - - - -
02/08:30pm 27.9 SW 12 14 - - - - - - - - - -
02/08:00pm 27.9 SW 11 13 - - - - - - - - - -
02/07:30pm 28.1 WSW 9 11 - - - - - - - - - -
02/07:00pm 27.8 WSW 8 11 - - - - - - - - - -
02/06:30pm 27.9 WSW 6 8 - - - - - - - - - -
02/06:00pm 28.2 SW 8 9 - - - - - - - - - -
02/05:30pm 28.5 SW 9 10 - - - - - - - - - -
02/05:00pm 29.4 SW 10 11 - - - - - - - - - -
02/04:30pm 29.2 WSW 9 11 - - - - - - - - - -
02/04:00pm 29.2 SW 6 8 - - - - - - - - - -
02/03:30pm 29.4 SW 6 7 - - - - - - - - - -
02/03:00pm 29.1 SW 7 9 - - - - - - - - - -
02/02:30pm 28.9 SW 8 9 - - - - - - - - - -
02/02:00pm 29.0 SW 10 11 - - - - - - - - - -
02/01:30pm 28.5 SW 10 13 - - - - - - - - - -
02/01:00pm 28.4 SW 8 9 - - - - - - - - - -
 
Date/Time
CST
Temp

°C
Wind Pressure Rain
since 9am
mm
Weather Cloud Vis
km
Sea
Height
m
Swell
Dir
 
Speed
knots
Gust
knots
hPa Trend Height
m
Period
s
Dir
01/11:00pm 26.3 WSW 11 13 - - 16.4 - - - - - - -
01/10:30pm 26.2 WSW 9 11 - - 16.4 - - - - - - -
01/10:00pm 25.8 WSW 9 11 - - 16.4 - - - - - - -
01/09:30pm 25.7 WSW 5 7 - - 16.4 - - - - - - -
01/09:00pm 25.4 WSW 7 9 - - 16.4 - - - - - - -
01/08:30pm 25.4 WSW 8 9 - - 16.4 - - - - - - -
01/08:00pm 25.4 WSW 7 8 - - 16.4 - - - - - - -
01/07:30pm 25.0 WSW 3 3 - - 16.4 - - - - - - -
01/07:00pm 24.9 WSW 6 9 - - 15.4 - - - - - - -
01/06:30pm 25.6 SW 15 19 - - 6.0 - - - - - - -
01/06:00pm 28.2 WSW 11 14 - - 0.8 Recent precip. - - - - - -
01/05:30pm 27.9 WSW 9 12 - - 0.8 - - - - - - -
01/05:00pm 27.9 WSW 11 13 - - 0.4 - - - - - - -
01/04:30pm 28.1 WSW 10 11 - - 0.2 - - - - - - -
01/04:00pm 28.2 WSW 10 11 - - 0.2 - - - - - - -
01/03:30pm 28.2 WSW 9 9 - - 0.2 - - - - - - -
01/03:00pm 28.2 WSW 9 10 - - 0.0 - - - - - - -
01/02:30pm 28.5 WSW 10 11 - - 0.0 - - - - - - -
01/02:00pm 28.1 WSW 13 14 - - 0.0 - - - - - - -
01/01:30pm 28.1 WSW 13 14 - - 0.0 - - - - - - -
01/01:00pm 28.2 WSW 13 15 - - 0.0 - - - - - - -
01/12:30pm 28.5 WSW 13 15 - - 0.0 - - - - - - -

Other Formats:

Comma delimited format used in spreadsheet applications
http://www.bom.gov.au/fwo/IDD60701/IDD60701.95146.axf

JavaScript Object Notation format (JSON) in row-major order
http://www.bom.gov.au/fwo/IDD60701/IDD60701.95146.json